Main page
METAR-TAF:

METAR-TAF

Airports :

Tulcea Airport

Tulcea, Romania

latitude: 45-11N, longitude: 028-49E, elevation: 4 m

Current weather observation

The report was made 11 minutes ago, at 11:00 UTC
Wind 19 kt from the Northeast
Temperature 24°C
Humidity 41%
Pressure 1019 hPa
Visibility 10 km or more
no clouds below 1500 m and no cumulonimbus

METAR: LRTC 251100Z 05019KT CAVOK 24/10 Q1019

Time: 14:11 (11:11 UTC)

Forecast

The report was made 3 hours and 11 minutes ago, at 08:00 UTC
Forecast valid from 25 at 09 UTC to 25 at 18 UTC
Wind 15 kt from the Northeast
Visibility 10 km or more
no clouds below 1500 m and no cumulonimbus

TAF: LRTC 250800Z 2509/2518 04015KT CAVOK

Weather observations and forecasts of more than 4000 airports (METAR and TAF reports).

The available stations are represented by yellow and red dots on the map.

Hover mouse over dot to see the name of the station.

Then click to see weather observations and forecasts.

To change the map : click on the green buttons with a black cross to zoom in, on the green button with a dash to zoom out, or on the green arrows for adjacent maps.


METAR-TAF: